createdAt,value
2022-10-21T00:04:12.649Z,99518.59
2022-10-21T00:06:40.912Z,99523.00
2022-10-21T00:09:09.181Z,99519.44
2022-10-21T00:11:37.505Z,99516.81
2022-10-21T00:14:05.861Z,99512.44
2022-10-21T00:16:34.147Z,99518.59
2022-10-21T00:19:02.427Z,99513.31
2022-10-21T00:21:32.101Z,99520.34
2022-10-21T00:24:00.354Z,99523.84
2022-10-21T00:26:28.682Z,99523.84
2022-10-21T00:28:57.641Z,99515.94
2022-10-21T00:31:26.442Z,99509.81
2022-10-21T00:33:54.833Z,99509.78
2022-10-21T00:36:23.182Z,99516.81
2022-10-21T00:38:52.949Z,99514.22
2022-10-21T00:41:21.598Z,99520.34
2022-10-21T00:44:01.406Z,99525.63
2022-10-21T00:46:39.386Z,99523.00
2022-10-21T00:49:14.001Z,99516.81
2022-10-21T00:51:42.661Z,99515.09
2022-10-21T00:54:12.689Z,99508.94
2022-10-21T00:56:45.193Z,99507.16
2022-10-21T00:59:14.098Z,99508.03
2022-10-21T01:01:42.854Z,99506.28
2022-10-21T01:04:11.211Z,99505.41
2022-10-21T01:06:41.194Z,99491.38
2022-10-21T01:09:10.322Z,99502.75
2022-10-21T01:11:45.115Z,99501.88
2022-10-21T01:14:51.017Z,99496.63
2022-10-21T01:17:44.182Z,99489.63
2022-10-21T01:20:45.176Z,99484.34
2022-10-21T01:23:54.864Z,99482.59
2022-10-21T01:27:06.513Z,99478.19
2022-10-21T01:30:14.349Z,99467.66
2022-10-21T01:32:58.250Z,99467.66
2022-10-21T01:35:34.313Z,99458.88
2022-10-21T01:38:10.298Z,99455.31
2022-10-21T01:40:46.483Z,99454.44
2022-10-21T01:43:20.690Z,99450.94
2022-10-21T01:45:53.688Z,99450.94
2022-10-21T01:48:26.569Z,99447.41
2022-10-21T01:50:59.317Z,99446.53
2022-10-21T01:53:42.567Z,99443.03
2022-10-21T01:56:13.292Z,99440.38
2022-10-21T01:58:44.225Z,99441.28
2022-10-21T02:01:15.082Z,99428.97
2022-10-21T02:03:48.029Z,99430.75
2022-10-21T02:06:16.526Z,99427.22
2022-10-21T02:08:45.921Z,99422.84
2022-10-21T02:11:15.323Z,99423.72
2022-10-21T02:13:49.371Z,99421.09
2022-10-21T02:16:22.997Z,99414.06
2022-10-21T02:18:52.597Z,99408.81
2022-10-21T02:21:24.565Z,99408.81
2022-10-21T02:23:55.588Z,99400.91
2022-10-21T02:26:25.730Z,99399.16
2022-10-21T02:28:56.908Z,99405.28
2022-10-21T02:31:40.703Z,99393.88
2022-10-21T02:34:21.437Z,99388.63
2022-10-21T02:36:55.299Z,99395.63
2022-10-21T02:39:31.989Z,99393.88
2022-10-21T02:42:03.038Z,99391.22
2022-10-21T02:44:31.811Z,99386.84
2022-10-21T02:47:00.331Z,99400.88
2022-10-21T02:49:30.066Z,99397.38
2022-10-21T02:51:58.485Z,99390.38
2022-10-21T02:54:26.813Z,99396.50
2022-10-21T02:56:55.102Z,99393.88
2022-10-21T02:59:23.633Z,99400.91
2022-10-21T03:01:51.933Z,99400.03
2022-10-21T03:04:20.430Z,99404.41
2022-10-21T03:06:50.138Z,99395.63
2022-10-21T03:09:18.548Z,99400.91
2022-10-21T03:11:46.826Z,99391.25
2022-10-21T03:14:15.337Z,99396.50
2022-10-21T03:16:43.729Z,99380.72
2022-10-21T03:19:12.177Z,99383.34
2022-10-21T03:21:40.517Z,99385.97
2022-10-21T03:24:19.670Z,99383.34
2022-10-21T03:26:53.571Z,99384.22
2022-10-21T03:29:21.993Z,99397.38
2022-10-21T03:31:50.535Z,99396.50
2022-10-21T03:34:18.858Z,99393.00
2022-10-21T03:36:47.143Z,99393.00
2022-10-21T03:39:16.896Z,99393.88
2022-10-21T03:41:45.179Z,99397.41
2022-10-21T03:44:13.505Z,99391.25
2022-10-21T03:46:41.858Z,99393.88
2022-10-21T03:49:19.756Z,99389.47
2022-10-21T03:51:50.258Z,99387.72
2022-10-21T03:54:20.205Z,99400.91
2022-10-21T03:56:48.574Z,99378.06
2022-10-21T03:59:17.269Z,99379.84
2022-10-21T04:01:45.779Z,99378.97
2022-10-21T04:04:14.082Z,99384.22
2022-10-21T04:06:42.393Z,99378.06
2022-10-21T04:09:11.334Z,99383.34
2022-10-21T04:11:41.013Z,99378.97
2022-10-21T04:14:12.978Z,99385.09
2022-10-21T04:16:43.669Z,99385.09
2022-10-21T04:19:17.305Z,99390.34
2022-10-21T04:21:46.049Z,99386.88
2022-10-21T04:24:14.577Z,99382.47
2022-10-21T04:26:44.682Z,99391.25
2022-10-21T04:29:12.983Z,99387.75
2022-10-21T04:31:41.440Z,99393.88
2022-10-21T04:34:09.928Z,99390.38
2022-10-21T04:36:38.233Z,99390.38
2022-10-21T04:39:06.837Z,99390.38
2022-10-21T04:41:35.157Z,99387.75
2022-10-21T04:44:06.348Z,99390.38
2022-10-21T04:46:35.013Z,99396.53
2022-10-21T04:49:03.359Z,99387.72
2022-10-21T04:54:05.166Z,99386.00
2022-10-21T04:56:33.726Z,99381.56
2022-10-21T04:59:06.187Z,99393.88
2022-10-21T05:01:36.213Z,99378.06
2022-10-21T05:04:06.812Z,99369.31
2022-10-21T05:06:35.321Z,99372.81
2022-10-21T05:09:04.657Z,99379.81
2022-10-21T05:11:33.127Z,99379.84
2022-10-21T05:14:01.644Z,99377.19
2022-10-21T05:16:31.697Z,99366.66
2022-10-21T05:19:00.508Z,99358.75
2022-10-21T05:21:30.742Z,99360.53
2022-10-21T05:23:59.131Z,99346.50
2022-10-21T05:26:28.856Z,99349.13
2022-10-21T05:28:59.546Z,99349.13
2022-10-21T05:31:28.064Z,99341.22
2022-10-21T05:33:57.940Z,99350.00
2022-10-21T05:36:28.885Z,99344.72
2022-10-21T05:38:57.395Z,99337.72
2022-10-21T05:41:25.787Z,99333.31
2022-10-21T05:43:56.926Z,99326.25
2022-10-21T05:46:25.285Z,99323.66
2022-10-21T05:48:53.595Z,99323.66
2022-10-21T05:51:26.407Z,99318.41
2022-10-21T05:53:55.207Z,99325.41
2022-10-21T05:56:23.668Z,99322.78
2022-10-21T05:58:55.612Z,99314.91
2022-10-21T06:01:24.154Z,99321.03
2022-10-21T06:03:55.019Z,99314.00
2022-10-21T06:06:24.709Z,99314.00
2022-10-21T06:08:53.058Z,99314.00
2022-10-21T06:11:21.642Z,99318.41
2022-10-21T06:13:50.158Z,99314.91
2022-10-21T06:16:18.701Z,99321.03
2022-10-21T06:18:47.157Z,99317.50
2022-10-21T06:21:15.933Z,99320.16
2022-10-21T06:23:48.218Z,99316.63
2022-10-21T06:26:17.603Z,99322.75
2022-10-21T06:28:45.942Z,99314.00
2022-10-21T06:31:15.971Z,99311.34
2022-10-21T06:33:44.369Z,99316.63
2022-10-21T06:36:12.708Z,99321.91
2022-10-21T06:38:41.177Z,99321.00
2022-10-21T06:41:14.211Z,99308.72
2022-10-21T06:43:45.531Z,99317.53
2022-10-21T06:46:15.811Z,99329.84
2022-10-21T06:48:44.128Z,99326.31
2022-10-21T06:51:15.349Z,99338.59
2022-10-21T06:53:44.453Z,99336.81
2022-10-21T06:56:16.514Z,99336.84
2022-10-21T06:58:48.049Z,99335.94
2022-10-21T07:01:33.407Z,99328.06
2022-10-21T07:04:04.229Z,99325.41
2022-10-21T07:09:07.885Z,99326.28
2022-10-21T07:11:37.922Z,99337.69
2022-10-21T07:14:07.411Z,99335.91
2022-10-21T07:16:37.374Z,99345.59
2022-10-21T07:19:06.937Z,99358.75
2022-10-21T07:21:36.162Z,99357.00
2022-10-21T07:24:04.582Z,99361.38
2022-10-21T07:26:35.067Z,99364.00
2022-10-21T07:29:05.239Z,99364.88
2022-10-21T07:31:36.403Z,99383.31
2022-10-21T07:34:06.981Z,99392.09
2022-10-21T07:36:37.466Z,99402.63
2022-10-21T07:39:08.907Z,99402.63
2022-10-21T07:41:40.500Z,99398.22
2022-10-21T07:44:11.057Z,99397.31
2022-10-21T07:46:41.117Z,99412.25
2022-10-21T07:49:10.910Z,99411.38
2022-10-21T07:51:40.220Z,99416.66
2022-10-21T07:54:09.339Z,99407.84
2022-10-21T07:56:40.203Z,99418.41
2022-10-21T07:59:12.920Z,99409.59
2022-10-21T08:01:44.331Z,99416.66
2022-10-21T08:04:14.143Z,99416.66
2022-10-21T08:06:42.611Z,99423.66
2022-10-21T08:09:11.408Z,99424.53
2022-10-21T08:11:39.746Z,99431.56
2022-10-21T08:14:11.000Z,99427.16
2022-10-21T08:16:39.562Z,99422.78
2022-10-21T08:19:08.685Z,99430.69
2022-10-21T08:21:38.581Z,99426.28
2022-10-21T08:24:07.411Z,99428.91
2022-10-21T08:26:35.838Z,99430.69
2022-10-21T08:29:05.080Z,99428.91
2022-10-21T08:31:34.699Z,99428.91
2022-10-21T08:34:03.048Z,99424.53
2022-10-21T08:36:31.435Z,99431.56
2022-10-21T08:39:00.037Z,99435.09
2022-10-21T08:41:47.725Z,99421.03
2022-10-21T08:44:26.380Z,99420.13
2022-10-21T08:47:03.795Z,99427.19
2022-10-21T08:49:42.299Z,99421.91
2022-10-21T08:52:14.828Z,99417.50
2022-10-21T08:54:47.739Z,99424.53
2022-10-21T08:57:16.596Z,99415.72
2022-10-21T08:59:44.936Z,99425.41
2022-10-21T09:02:44.950Z,99425.41
2022-10-21T09:08:12.296Z,99419.25
2022-10-21T09:10:55.205Z,99428.03
2022-10-21T09:13:40.082Z,99426.25
2022-10-21T09:16:14.237Z,99424.50
2022-10-21T09:18:56.780Z,99426.28
2022-10-21T09:21:35.135Z,99426.28
2022-10-21T09:24:08.569Z,99426.28
2022-10-21T09:26:41.416Z,99429.78
2022-10-21T09:29:26.849Z,99435.94
2022-10-21T09:32:02.139Z,99435.03
2022-10-21T09:34:45.244Z,99437.69
2022-10-21T09:37:23.385Z,99428.88
2022-10-21T09:40:00.057Z,99427.13
2022-10-21T09:42:47.378Z,99432.41
2022-10-21T09:45:25.839Z,99438.53
2022-10-21T09:47:58.669Z,99449.09
2022-10-21T09:53:12.862Z,99435.88
2022-10-21T09:55:41.441Z,99436.78
2022-10-21T09:58:26.269Z,99435.03
2022-10-21T10:00:55.409Z,99449.06
2022-10-21T10:03:34.746Z,99446.44
2022-10-21T10:06:06.654Z,99461.38
2022-10-21T10:08:38.459Z,99463.16
2022-10-21T10:11:16.912Z,99467.53
2022-10-21T10:13:46.954Z,99474.56
2022-10-21T10:16:22.213Z,99478.06
2022-10-21T10:18:52.121Z,99496.53
2022-10-21T10:21:23.126Z,99503.53
2022-10-21T10:23:53.695Z,99503.56
2022-10-21T10:26:29.918Z,99508.84
2022-10-21T10:29:00.152Z,99509.72
2022-10-21T10:31:34.480Z,99506.19
2022-10-21T10:34:05.826Z,99494.72
2022-10-21T10:36:38.699Z,99501.78
2022-10-21T10:39:17.139Z,99507.06
2022-10-21T10:41:50.346Z,99503.53
2022-10-21T10:44:30.318Z,99498.25
2022-10-21T10:47:02.074Z,99503.53
2022-10-21T10:49:38.703Z,99514.94
2022-10-21T10:52:21.475Z,99517.59
2022-10-21T10:55:10.167Z,99504.41
2022-10-21T10:57:45.988Z,99507.03
2022-10-21T11:00:27.277Z,99507.03
2022-10-21T11:03:01.523Z,99511.44
2022-10-21T11:05:36.262Z,99516.72
2022-10-21T11:08:15.083Z,99521.09
2022-10-21T11:10:46.167Z,99510.56
2022-10-21T11:13:17.399Z,99506.16
2022-10-21T11:16:11.161Z,99514.94
2022-10-21T11:18:49.507Z,99499.09
2022-10-21T11:21:43.568Z,99498.22
2022-10-21T11:24:45.541Z,99510.56
2022-10-21T11:27:23.609Z,99504.38
2022-10-21T11:30:02.968Z,99502.63
2022-10-21T11:32:44.254Z,99495.59
2022-10-21T11:35:31.147Z,99495.59
2022-10-21T11:38:23.969Z,99489.41
2022-10-21T11:40:59.018Z,99492.06
2022-10-21T11:43:41.689Z,99485.91
2022-10-21T11:46:16.834Z,99487.66
2022-10-21T11:49:00.943Z,99481.44
2022-10-21T11:51:41.006Z,99488.47
2022-10-21T11:55:00.945Z,99487.56
2022-10-21T11:57:41.271Z,99478.72
2022-10-21T12:00:15.087Z,99477.84
2022-10-21T12:02:45.540Z,99474.31
2022-10-21T12:05:23.757Z,99468.97
2022-10-21T12:08:06.163Z,99474.22
2022-10-21T12:10:38.115Z,99466.25
2022-10-21T12:13:14.668Z,99476.75
2022-10-21T12:15:48.719Z,99466.13
2022-10-21T12:18:20.509Z,99464.31
2022-10-21T12:20:51.869Z,99461.59
2022-10-21T12:23:23.320Z,99457.09
2022-10-21T12:26:04.833Z,99461.44
2022-10-21T12:28:40.031Z,99461.28
2022-10-21T12:31:23.562Z,99454.09
2022-10-21T12:33:52.229Z,99451.31
2022-10-21T12:36:39.148Z,99460.84
2022-10-21T12:39:13.293Z,99461.63
2022-10-21T12:41:42.003Z,99457.16
2022-10-21T12:44:28.130Z,99450.03
2022-10-21T12:47:02.482Z,99452.59
2022-10-21T12:49:33.489Z,99456.03
2022-10-21T12:52:10.229Z,99463.91
2022-10-21T12:54:44.259Z,99447.06
2022-10-21T12:57:26.150Z,99447.88
2022-10-21T13:00:44.345Z,99441.69
2022-10-21T13:03:20.004Z,99445.22
2022-10-21T13:06:03.111Z,99435.50
2022-10-21T13:08:40.556Z,99440.78
2022-10-21T13:11:39.871Z,99428.41
2022-10-21T13:14:40.246Z,99427.53
2022-10-21T13:17:30.573Z,99433.72
2022-10-21T13:20:33.570Z,99437.22
2022-10-21T13:23:31.696Z,99445.13
2022-10-21T13:26:25.255Z,99437.97
2022-10-21T13:29:29.873Z,99448.50
2022-10-21T13:32:23.079Z,99441.38
2022-10-21T13:35:22.842Z,99447.47
2022-10-21T13:37:57.319Z,99449.19
2022-10-21T13:40:28.945Z,99455.28
2022-10-21T13:42:59.615Z,99461.44
2022-10-21T13:45:31.437Z,99449.91
2022-10-21T13:48:04.270Z,99452.53
2022-10-21T13:50:35.051Z,99449.00
2022-10-21T13:53:04.473Z,99456.03
2022-10-21T13:55:34.198Z,99453.31
2022-10-21T13:58:02.448Z,99455.84
2022-10-21T14:00:32.798Z,99449.47
2022-10-21T14:03:03.405Z,99445.72
2022-10-21T14:05:35.848Z,99447.16
2022-10-21T14:08:05.669Z,99447.81
2022-10-21T14:10:35.525Z,99443.22
2022-10-21T14:13:05.566Z,99447.44
2022-10-21T14:15:40.753Z,99440.97
2022-10-21T14:18:09.258Z,99437.97
2022-10-21T14:20:39.091Z,99434.13
2022-10-21T14:23:18.775Z,99439.13
2022-10-21T14:25:49.722Z,99436.19
2022-10-21T14:28:18.880Z,99436.78
2022-10-21T14:30:48.473Z,99433.88
2022-10-21T14:33:23.933Z,99441.53
2022-10-21T14:36:06.289Z,99442.97
2022-10-21T14:38:39.459Z,99436.50
2022-10-21T14:41:15.491Z,99435.34
2022-10-21T14:43:46.539Z,99433.34
2022-10-21T14:46:14.996Z,99432.22
2022-10-21T14:48:47.835Z,99436.44
2022-10-21T14:51:21.162Z,99434.44
2022-10-21T14:53:54.806Z,99440.47
2022-10-21T14:56:31.036Z,99439.31
2022-10-21T14:59:01.275Z,99433.78
2022-10-21T15:01:29.643Z,99430.28
2022-10-21T15:03:59.835Z,99434.03
2022-10-21T15:06:30.025Z,99436.13
2022-10-21T15:09:17.608Z,99434.72
2022-10-21T15:11:48.005Z,99444.00
2022-10-21T15:14:23.927Z,99440.81
2022-10-21T15:16:55.360Z,99437.66
2022-10-21T15:19:27.200Z,99427.28
2022-10-21T15:21:59.460Z,99431.13
2022-10-21T15:24:37.479Z,99432.25
2022-10-21T15:27:07.395Z,99432.50
2022-10-21T15:29:38.136Z,99422.94
2022-10-21T15:32:07.257Z,99432.88
2022-10-21T15:34:35.606Z,99421.50
2022-10-21T15:37:04.149Z,99422.56
2022-10-21T15:39:32.609Z,99425.38
2022-10-21T15:42:01.682Z,99426.41
2022-10-21T15:44:32.779Z,99432.75
2022-10-21T15:47:05.472Z,99435.59
2022-10-21T15:49:36.348Z,99436.66
2022-10-21T15:52:05.094Z,99438.59
2022-10-21T15:54:33.767Z,99448.47
2022-10-21T15:57:03.777Z,99447.75
2022-10-21T15:59:34.908Z,99454.91
2022-10-21T16:04:31.483Z,99446.38
2022-10-21T16:06:59.861Z,99450.06
2022-10-21T16:09:30.298Z,99447.53
2022-10-21T16:12:01.219Z,99439.63
2022-10-21T16:14:31.282Z,99446.84
2022-10-21T16:17:01.040Z,99441.66
2022-10-21T16:19:29.758Z,99443.47
2022-10-21T16:21:58.058Z,99448.00
2022-10-21T16:24:26.375Z,99447.22
2022-10-21T16:26:54.663Z,99452.63
2022-10-21T16:29:25.264Z,99450.94
2022-10-21T16:31:53.761Z,99451.03
2022-10-21T16:34:23.804Z,99449.34
2022-10-21T16:36:52.182Z,99445.91
2022-10-21T16:39:25.228Z,99460.13
2022-10-21T16:41:53.713Z,99454.94
2022-10-21T16:44:22.015Z,99458.56
2022-10-21T16:46:51.994Z,99461.28
2022-10-21T16:49:24.919Z,99467.50
2022-10-21T16:51:53.660Z,99468.47
2022-10-21T16:54:24.031Z,99468.56
2022-10-21T16:56:54.977Z,99469.47
2022-10-21T16:59:24.146Z,99471.31
2022-10-21T17:01:52.585Z,99475.78
2022-10-21T17:04:20.927Z,99478.50
2022-10-21T17:06:50.710Z,99482.06
2022-10-21T17:09:19.763Z,99476.81
2022-10-21T17:11:48.124Z,99485.72
2022-10-21T17:14:18.325Z,99482.28
2022-10-21T17:16:47.522Z,99487.59
2022-10-21T17:19:16.245Z,99494.72
2022-10-21T17:21:45.053Z,99499.16
2022-10-21T17:24:17.792Z,99496.59
2022-10-21T17:26:46.429Z,99498.38
2022-10-21T17:29:15.532Z,99494.91
2022-10-21T17:31:44.422Z,99498.47
2022-10-21T17:34:25.515Z,99495.88
2022-10-21T17:36:54.297Z,99503.78
2022-10-21T17:39:24.322Z,99506.47
2022-10-21T17:41:52.795Z,99512.69
2022-10-21T17:44:21.238Z,99510.03
2022-10-21T17:46:54.174Z,99519.78
2022-10-21T17:49:23.282Z,99517.16
2022-10-21T17:51:51.867Z,99523.31
2022-10-21T17:54:24.165Z,99524.22
2022-10-21T17:56:58.863Z,99532.16
2022-10-21T17:59:27.189Z,99529.53
2022-10-21T18:01:55.551Z,99530.41
2022-10-21T18:04:23.814Z,99532.19
2022-10-21T18:06:52.259Z,99542.75
2022-10-21T18:09:20.586Z,99544.53
2022-10-21T18:11:48.970Z,99541.91
2022-10-21T18:14:18.640Z,99537.53
2022-10-21T18:16:46.949Z,99540.16
2022-10-21T18:19:15.228Z,99544.56
2022-10-21T18:21:43.541Z,99546.34
2022-10-21T18:24:12.738Z,99548.97
2022-10-21T18:26:41.384Z,99551.66
2022-10-21T18:29:09.998Z,99550.78
2022-10-21T18:31:40.073Z,99555.19
2022-10-21T18:34:09.275Z,99553.44
2022-10-21T18:36:37.920Z,99556.94
2022-10-21T18:39:07.008Z,99547.28
2022-10-21T18:41:36.241Z,99548.16
2022-10-21T18:44:08.414Z,99545.56
2022-10-21T18:46:39.183Z,99548.19
2022-10-21T18:49:10.180Z,99555.22
2022-10-21T18:51:38.572Z,99558.78
2022-10-21T18:54:06.992Z,99557.00
2022-10-21T18:56:35.323Z,99555.25
2022-10-21T18:59:06.281Z,99556.16
2022-10-21T19:01:34.623Z,99554.41
2022-10-21T19:04:04.836Z,99562.31
2022-10-21T19:06:39.311Z,99558.81
2022-10-21T19:09:12.810Z,99557.94
2022-10-21T19:11:41.303Z,99558.81
2022-10-21T19:14:13.088Z,99562.38
2022-10-21T19:16:43.277Z,99552.69
2022-10-21T19:19:17.030Z,99556.19
2022-10-21T19:21:45.744Z,99560.59
2022-10-21T19:24:20.242Z,99545.66
2022-10-21T19:26:53.158Z,99547.44
2022-10-21T19:29:22.944Z,99556.25
2022-10-21T19:31:51.677Z,99543.03
2022-10-21T19:34:23.716Z,99541.28
2022-10-21T19:36:52.161Z,99535.13
2022-10-21T19:39:23.578Z,99536.00
2022-10-21T19:41:52.153Z,99534.28
2022-10-21T19:44:20.529Z,99543.09
2022-10-21T19:46:48.853Z,99546.59
2022-10-21T19:49:17.349Z,99552.75
2022-10-21T19:51:47.175Z,99556.28
2022-10-21T19:54:18.290Z,99571.22
2022-10-21T19:56:46.647Z,99575.63
2022-10-21T19:59:15.067Z,99569.50
2022-10-21T20:01:43.652Z,99573.03
2022-10-21T20:04:14.863Z,99564.25
2022-10-21T20:06:43.741Z,99561.63
2022-10-21T20:09:15.158Z,99559.84
2022-10-21T20:11:44.067Z,99577.44
2022-10-21T20:14:13.791Z,99585.34
2022-10-21T20:16:43.371Z,99597.66
2022-10-21T20:19:13.206Z,99597.63
2022-10-21T20:21:42.639Z,99601.16
2022-10-21T20:24:15.555Z,99599.44
2022-10-21T20:26:45.533Z,99588.00
2022-10-21T20:29:15.411Z,99591.50
2022-10-21T20:31:43.716Z,99602.91
2022-10-21T20:34:13.863Z,99609.09
2022-10-21T20:36:42.190Z,99619.63
2022-10-21T20:39:13.441Z,99612.59
2022-10-21T20:41:41.804Z,99607.31
2022-10-21T20:44:13.222Z,99611.72
2022-10-21T20:46:41.468Z,99608.22
2022-10-21T20:49:09.965Z,99613.50
2022-10-21T20:51:41.974Z,99608.22
2022-10-21T20:54:12.995Z,99608.22
2022-10-21T20:56:42.952Z,99613.50
2022-10-21T20:59:15.081Z,99617.88
2022-10-21T21:01:45.208Z,99613.50
2022-10-21T21:04:15.886Z,99619.63
2022-10-21T21:06:45.931Z,99616.09
2022-10-21T21:12:05.715Z,99631.03
2022-10-21T21:14:34.051Z,99620.53
2022-10-21T21:17:11.834Z,99611.72
2022-10-21T21:19:42.931Z,99617.00
2022-10-21T21:22:15.285Z,99616.97
2022-10-21T21:24:52.856Z,99613.47
2022-10-21T21:27:25.808Z,99614.34
2022-10-21T21:30:01.705Z,99606.41
2022-10-21T21:32:34.555Z,99610.81
2022-10-21T21:35:06.242Z,99606.44
2022-10-21T21:37:49.587Z,99609.94
2022-10-21T21:40:21.950Z,99623.97
2022-10-21T21:42:55.238Z,99619.59
2022-10-21T21:45:27.140Z,99614.31
2022-10-21T21:47:58.892Z,99610.81
2022-10-21T21:50:39.730Z,99610.78
2022-10-21T21:53:10.587Z,99602.88
2022-10-21T21:55:57.706Z,99599.34
2022-10-21T21:58:33.502Z,99597.59
2022-10-21T22:01:09.776Z,99599.34
2022-10-21T22:03:51.230Z,99605.47
2022-10-21T22:09:07.143Z,99620.38
2022-10-21T22:11:43.428Z,99599.31
2022-10-21T22:15:04.550Z,99594.00
2022-10-21T22:17:41.557Z,99612.47
2022-10-21T22:20:39.270Z,99601.91
2022-10-21T22:23:08.121Z,99598.38
2022-10-21T22:25:40.076Z,99600.16
2022-10-21T22:28:08.857Z,99608.91
2022-10-21T22:30:40.049Z,99601.88
2022-10-21T22:33:08.671Z,99602.75
2022-10-21T22:35:40.254Z,99590.44
2022-10-21T22:38:10.398Z,99593.06
2022-10-21T22:40:43.699Z,99589.56
2022-10-21T22:43:12.235Z,99591.31
2022-10-21T22:45:43.327Z,99592.16
2022-10-21T22:48:12.502Z,99593.91
2022-10-21T22:50:40.814Z,99592.13
2022-10-21T22:53:09.404Z,99598.28
2022-10-21T22:55:39.715Z,99607.06
2022-10-21T22:58:08.170Z,99601.78
2022-10-21T23:00:38.279Z,99593.00
2022-10-21T23:03:09.718Z,99589.44
2022-10-21T23:05:38.301Z,99590.34
2022-10-21T23:08:06.569Z,99603.47
2022-10-21T23:10:35.000Z,99612.22
2022-10-21T23:13:05.321Z,99614.88
2022-10-21T23:15:33.835Z,99606.09
2022-10-21T23:18:02.479Z,99613.97
2022-10-21T23:20:32.218Z,99610.47
2022-10-21T23:23:00.592Z,99608.75
2022-10-21T23:25:28.989Z,99608.72
2022-10-21T23:27:57.431Z,99603.47
2022-10-21T23:30:25.791Z,99613.16
2022-10-21T23:32:54.161Z,99619.31
2022-10-21T23:35:23.666Z,99620.19
2022-10-21T23:37:53.385Z,99624.59
2022-10-21T23:40:21.745Z,99625.50
2022-10-21T23:42:51.220Z,99620.25
2022-10-21T23:45:19.757Z,99618.50
2022-10-21T23:47:48.039Z,99619.38
2022-10-21T23:50:16.961Z,99620.25
2022-10-21T23:52:45.321Z,99626.44
2022-10-21T23:55:14.987Z,99624.66
2022-10-21T23:57:43.700Z,99629.06
